Time;durP1;ratioP1;P1;durP2;ratioP2;P2;SDS_P1;SDS_P2;PMS_P1;PMS_P2;Temp;Humidity;BMP_temperature;BMP_pressure;BME280_temperature;BME280_humidity;BME280_pressure;Samples;Min_cycle;Max_cycle;Signal;HPM_P1;HPM_P2
2022/09/28 00:00:19;;;;;;;520.17;443.05;;;13.00;99.90;;;;;;5047176;28;20531;-73
2022/09/28 00:02:47;;;;;;;512.78;418.77;;;13.00;99.90;;;;;;5047368;28;20241;-73
2022/09/28 00:05:14;;;;;;;520.45;421.88;;;13.00;99.90;;;;;;5047231;28;20196;-74
2022/09/28 00:07:42;;;;;;;512.45;428.67;;;13.00;99.90;;;;;;5049580;28;20566;-73
2022/09/28 00:10:09;;;;;;;510.52;429.35;;;13.00;99.90;;;;;;5049224;28;20195;-74
2022/09/28 00:12:36;;;;;;;519.70;433.08;;;13.00;99.90;;;;;;5047714;28;20222;-73
2022/09/28 00:15:03;;;;;;;510.55;423.38;;;13.00;99.90;;;;;;5047612;28;20221;-74
2022/09/28 00:17:30;;;;;;;518.83;426.98;;;13.00;99.90;;;;;;5044966;28;20291;-73
2022/09/28 00:19:57;;;;;;;508.00;427.33;;;13.00;99.90;;;;;;5050356;28;20197;-73
2022/09/28 00:22:23;;;;;;;516.92;432.15;;;13.00;99.90;;;;;;5049488;28;20203;-73
2022/09/28 00:24:51;;;;;;;495.42;428.77;;;13.00;99.90;;;;;;5047474;28;20194;-73
2022/09/28 00:27:18;;;;;;;500.30;432.10;;;13.00;99.90;;;;;;5044542;28;20261;-74
2022/09/28 00:29:45;;;;;;;494.85;422.58;;;12.90;99.90;;;;;;5050336;28;20191;-73
2022/09/28 00:32:14;;;;;;;489.70;422.60;;;12.90;99.90;;;;;;5046764;28;20223;-73
2022/09/28 00:34:44;;;;;;;492.52;424.38;;;12.90;99.90;;;;;;5044255;28;20249;-73
2022/09/28 00:37:12;;;;;;;489.52;429.33;;;12.90;99.90;;;;;;5046570;28;20561;-75
2022/09/28 00:39:41;;;;;;;489.15;412.58;;;12.90;99.90;;;;;;5036138;28;20191;-74
2022/09/28 00:42:14;;;;;;;487.67;424.38;;;12.90;99.90;;;;;;5045813;28;20202;-73
2022/09/28 00:44:44;;;;;;;481.45;419.52;;;12.90;99.90;;;;;;5049129;28;20278;-75
2022/09/28 00:47:19;;;;;;;479.80;424.02;;;12.90;99.90;;;;;;5047186;28;20202;-74
2022/09/28 00:49:52;;;;;;;480.33;424.33;;;12.90;99.90;;;;;;5043229;28;20208;-74
2022/09/28 00:52:23;;;;;;;479.60;416.38;;;12.90;99.90;;;;;;5042825;28;20250;-73
2022/09/28 00:54:52;;;;;;;478.77;423.83;;;12.90;99.90;;;;;;5043871;28;20645;-73
2022/09/28 00:57:22;;;;;;;481.60;422.88;;;12.90;99.90;;;;;;5048147;28;20187;-76
2022/09/28 00:59:51;;;;;;;483.52;414.90;;;12.90;99.90;;;;;;5043676;28;20696;-74
2022/09/28 01:02:18;;;;;;;483.65;428.17;;;12.90;99.90;;;;;;5045392;28;20203;-73
2022/09/28 01:04:45;;;;;;;483.45;423.70;;;12.90;99.90;;;;;;5048959;28;20199;-74
2022/09/28 01:07:12;;;;;;;483.75;427.92;;;12.90;99.90;;;;;;5047639;28;20203;-73
2022/09/28 01:09:39;;;;;;;478.80;419.00;;;12.90;99.90;;;;;;5047878;28;20199;-73
2022/09/28 01:12:07;;;;;;;468.38;404.30;;;12.90;99.90;;;;;;5049750;28;20322;-73
2022/09/28 01:14:35;;;;;;;479.85;424.67;;;12.90;99.90;;;;;;5044342;28;21462;-74
2022/09/28 01:17:10;;;;;;;472.48;412.20;;;12.90;99.90;;;;;;5047355;28;20211;-73
2022/09/28 01:19:59;;;;;;;475.73;421.50;;;12.80;99.90;;;;;;5049166;28;20542;-73
2022/09/28 01:22:50;;;;;;;483.75;421.75;;;12.90;99.90;;;;;;5045980;28;20234;-74
2022/09/28 01:25:30;;;;;;;473.35;398.02;;;12.80;99.90;;;;;;5043849;28;20202;-75
2022/09/28 01:28:04;;;;;;;474.60;407.08;;;12.80;99.90;;;;;;5047771;28;20276;-74
2022/09/28 01:30:39;;;;;;;481.23;410.55;;;12.80;99.90;;;;;;5047857;28;20203;-73
2022/09/28 01:33:11;;;;;;;480.70;411.05;;;12.80;99.90;;;;;;5043200;28;20249;-75
2022/09/28 01:35:42;;;;;;;481.45;425.40;;;12.80;99.90;;;;;;5044557;28;20437;-74
2022/09/28 01:38:14;;;;;;;479.40;421.60;;;12.80;99.90;;;;;;5047677;28;20203;-73
2022/09/28 01:40:41;;;;;;;475.45;405.08;;;12.80;99.90;;;;;;5041676;28;20199;-73
2022/09/28 01:43:13;;;;;;;485.02;407.65;;;12.80;99.90;;;;;;5045837;28;20195;-73
2022/09/28 01:45:44;;;;;;;486.98;421.88;;;12.80;99.90;;;;;;5046077;28;20199;-73
2022/09/28 01:48:15;;;;;;;486.77;416.95;;;12.80;99.90;;;;;;5043594;28;20249;-75
2022/09/28 01:50:45;;;;;;;492.15;427.40;;;12.80;99.90;;;;;;5042175;28;20191;-73
2022/09/28 01:53:16;;;;;;;487.77;420.38;;;12.80;99.90;;;;;;5044384;28;20339;-73
2022/09/28 01:55:45;;;;;;;485.80;409.65;;;12.80;99.90;;;;;;5042577;28;20188;-74
2022/09/28 01:58:18;;;;;;;489.17;412.27;;;12.80;99.90;;;;;;5044041;28;20589;-74
2022/09/28 02:01:04;;;;;;;482.33;417.83;;;12.80;99.90;;;;;;5034317;28;20195;-73
2022/09/28 02:03:36;;;;;;;485.52;431.48;;;12.80;99.90;;;;;;5045426;28;20269;-75
2022/09/28 02:06:05;;;;;;;483.23;408.50;;;12.70;99.90;;;;;;5034904;28;20207;-74
2022/09/28 02:08:37;;;;;;;479.85;401.52;;;12.70;99.90;;;;;;5040525;28;20200;-75
2022/09/28 02:11:09;;;;;;;477.83;406.75;;;12.70;99.90;;;;;;5045511;28;20199;-74
2022/09/28 02:13:40;;;;;;;485.02;422.67;;;12.70;99.90;;;;;;5038057;28;20195;-74
2022/09/28 02:16:13;;;;;;;476.88;400.05;;;12.70;99.90;;;;;;5034054;28;20625;-76
2022/09/28 02:25:30;;;;;;;481.85;397.65;;;12.70;99.90;;;;;;5044656;28;20660;-74
2022/09/28 02:28:00;;;;;;;481.10;394.42;;;12.70;99.90;;;;;;5044951;28;20195;-75
2022/09/28 02:30:30;;;;;;;489.17;414.13;;;12.70;99.90;;;;;;5043561;28;20194;-75
2022/09/28 02:33:03;;;;;;;490.92;410.80;;;12.70;99.90;;;;;;5038360;28;20299;-75
2022/09/28 02:35:29;;;;;;;487.20;400.05;;;12.70;99.90;;;;;;5046271;28;20203;-75
2022/09/28 02:37:56;;;;;;;493.40;418.60;;;12.70;99.90;;;;;;5047650;28;20198;-75
2022/09/28 02:40:26;;;;;;;490.98;403.50;;;12.60;99.90;;;;;;5046918;28;20195;-76
2022/09/28 02:42:59;;;;;;;495.48;427.08;;;12.60;99.90;;;;;;5047709;28;20195;-75
2022/09/28 02:45:44;;;;;;;489.27;409.67;;;12.60;99.90;;;;;;5048183;28;20207;-74
2022/09/28 02:48:25;;;;;;;488.20;396.58;;;12.70;99.90;;;;;;5045809;28;20211;-77
2022/09/28 02:51:02;;;;;;;489.67;402.13;;;12.60;99.90;;;;;;5050748;28;20230;-74
2022/09/28 02:54:01;;;;;;;492.70;408.23;;;12.60;99.90;;;;;;5044634;28;20608;-77
2022/09/28 02:56:53;;;;;;;487.55;387.40;;;12.60;99.90;;;;;;5040418;28;20199;-74
2022/09/28 02:59:32;;;;;;;488.23;389.77;;;12.60;99.90;;;;;;5050956;28;20198;-74
2022/09/28 03:02:11;;;;;;;498.60;400.48;;;12.60;99.90;;;;;;5047762;28;20195;-75
2022/09/28 03:04:44;;;;;;;503.70;403.77;;;12.60;99.90;;;;;;5043593;28;20196;-75
2022/09/28 03:07:18;;;;;;;500.83;403.02;;;12.60;99.90;;;;;;5047752;28;20198;-75
2022/09/28 03:09:51;;;;;;;504.40;394.00;;;12.60;99.90;;;;;;5048296;28;20205;-75
2022/09/28 03:12:20;;;;;;;504.30;403.40;;;12.60;99.90;;;;;;5048417;28;20685;-75
2022/09/28 03:14:47;;;;;;;506.75;403.45;;;12.60;99.90;;;;;;5042514;28;20199;-74
2022/09/28 03:17:15;;;;;;;508.67;408.23;;;12.60;99.90;;;;;;5045432;28;20614;-74
2022/09/28 03:19:42;;;;;;;504.77;389.58;;;12.60;99.90;;;;;;5046376;28;20299;-74
2022/09/28 03:22:08;;;;;;;509.67;388.00;;;12.60;99.90;;;;;;5046539;28;20201;-74
2022/09/28 03:24:35;;;;;;;575.45;415.23;;;12.60;99.90;;;;;;5044046;28;20229;-75
2022/09/28 03:27:02;;;;;;;611.90;409.58;;;12.60;99.90;;;;;;5049650;28;20199;-75
2022/09/28 03:29:30;;;;;;;599.60;406.50;;;12.60;99.90;;;;;;5050388;28;20187;-74
2022/09/28 03:31:56;;;;;;;596.88;391.33;;;12.60;99.90;;;;;;5043169;28;20293;-75
2022/09/28 03:34:24;;;;;;;607.00;405.10;;;12.60;99.90;;;;;;5048800;28;20191;-75
2022/09/28 03:36:51;;;;;;;603.88;401.00;;;12.60;99.90;;;;;;5044478;28;20207;-74
2022/09/28 03:39:18;;;;;;;605.72;397.35;;;12.60;99.90;;;;;;5044966;28;20210;-75
2022/09/28 03:41:44;;;;;;;609.35;405.25;;;12.50;99.90;;;;;;5048451;28;20555;-74
2022/09/28 03:44:11;;;;;;;607.50;398.52;;;12.50;99.90;;;;;;5048971;28;20198;-74
2022/09/28 03:46:38;;;;;;;608.17;404.10;;;12.50;99.90;;;;;;5041950;28;20196;-75
2022/09/28 03:49:04;;;;;;;610.75;412.02;;;12.50;99.90;;;;;;5039486;28;20210;-74
2022/09/28 03:51:32;;;;;;;602.72;396.73;;;12.50;99.90;;;;;;5043598;28;20211;-74
2022/09/28 03:53:59;;;;;;;603.42;394.85;;;12.50;99.90;;;;;;5036453;28;20191;-74
2022/09/28 03:56:26;;;;;;;603.67;402.63;;;12.50;99.90;;;;;;5049969;28;20206;-75
2022/09/28 03:58:53;;;;;;;603.03;397.92;;;12.50;99.90;;;;;;5052916;28;20585;-74
2022/09/28 04:01:19;;;;;;;605.58;406.98;;;12.50;99.90;;;;;;5047822;28;20650;-75
2022/09/28 04:03:47;;;;;;;605.88;402.73;;;12.50;99.90;;;;;;5047094;28;20562;-74
2022/09/28 04:06:14;;;;;;;603.67;396.88;;;12.50;99.90;;;;;;5047856;28;20199;-74
2022/09/28 04:08:42;;;;;;;601.72;398.27;;;12.50;99.90;;;;;;5049667;28;20199;-74
2022/09/28 04:11:09;;;;;;;604.63;397.88;;;12.50;99.90;;;;;;5051131;28;20219;-74
2022/09/28 04:13:36;;;;;;;603.80;393.88;;;12.50;99.90;;;;;;5042569;28;20214;-74
2022/09/28 04:16:03;;;;;;;595.80;378.85;;;12.50;99.90;;;;;;5048140;28;20558;-75
2022/09/28 04:18:31;;;;;;;601.42;396.70;;;12.40;99.90;;;;;;5037107;28;20198;-76
2022/09/28 04:21:02;;;;;;;602.50;396.20;;;12.40;99.90;;;;;;5044771;28;20241;-77
2022/09/28 04:23:28;;;;;;;602.45;394.10;;;12.40;99.90;;;;;;5050619;28;20233;-76
2022/09/28 04:25:56;;;;;;;602.92;398.70;;;12.40;99.90;;;;;;5043391;28;20203;-77
2022/09/28 04:31:10;;;;;;;601.67;391.10;;;12.40;99.90;;;;;;5042948;28;20201;-76
2022/09/28 04:33:36;;;;;;;598.00;386.30;;;12.40;99.90;;;;;;5042494;28;20215;-76
2022/09/28 04:36:03;;;;;;;595.55;387.02;;;12.40;99.90;;;;;;5048276;28;20645;-76
2022/09/28 04:38:30;;;;;;;602.88;407.60;;;12.40;99.90;;;;;;5038106;28;20199;-76
2022/09/28 04:40:58;;;;;;;594.33;375.17;;;12.40;99.90;;;;;;5043977;28;20202;-76
2022/09/28 04:43:25;;;;;;;599.83;389.52;;;12.40;99.90;;;;;;5051169;28;20614;-75
2022/09/28 04:45:51;;;;;;;596.97;390.48;;;12.40;99.90;;;;;;5051063;28;20214;-76
2022/09/28 04:48:18;;;;;;;598.13;400.70;;;12.40;99.90;;;;;;5041474;28;20214;-76
2022/09/28 04:50:53;;;;;;;600.25;394.13;;;12.40;99.90;;;;;;5048517;28;20221;-75
2022/09/28 04:53:19;;;;;;;605.17;393.10;;;12.40;99.90;;;;;;5050117;28;20214;-75
2022/09/28 04:55:55;;;;;;;607.08;408.52;;;12.40;99.90;;;;;;5047850;28;20202;-75
2022/09/28 04:58:23;;;;;;;602.88;395.30;;;12.40;99.90;;;;;;5050476;28;20240;-73
2022/09/28 05:00:50;;;;;;;603.67;399.25;;;12.40;99.90;;;;;;5044332;28;20203;-73
2022/09/28 05:03:16;;;;;;;607.33;396.52;;;12.40;99.90;;;;;;5042539;28;20281;-73
2022/09/28 05:05:44;;;;;;;609.17;395.33;;;12.40;99.90;;;;;;5047904;28;20213;-74
2022/09/28 05:08:10;;;;;;;601.33;393.17;;;12.40;99.90;;;;;;5046338;28;20200;-74
2022/09/28 05:10:39;;;;;;;601.15;391.67;;;12.40;99.90;;;;;;5047039;28;20535;-73
2022/09/28 05:13:05;;;;;;;609.70;407.17;;;12.40;99.90;;;;;;5048968;28;20653;-75
2022/09/28 05:15:35;;;;;;;607.30;395.98;;;12.40;99.90;;;;;;5049764;28;20198;-75
2022/09/28 05:18:02;;;;;;;622.30;403.60;;;12.40;99.90;;;;;;5045594;28;20242;-75
2022/09/28 05:20:29;;;;;;;624.55;396.55;;;12.40;99.90;;;;;;5047232;28;20198;-75
2022/09/28 05:22:56;;;;;;;621.00;391.25;;;12.40;99.90;;;;;;5053047;28;20670;-77
2022/09/28 05:25:23;;;;;;;621.55;386.00;;;12.30;99.90;;;;;;5045652;28;20662;-75
2022/09/28 05:27:55;;;;;;;629.30;387.15;;;12.30;99.90;;;;;;5047961;28;20199;-76
2022/09/28 05:30:22;;;;;;;632.92;402.05;;;12.30;99.90;;;;;;5044351;28;20252;-76
2022/09/28 05:32:50;;;;;;;622.25;401.48;;;12.30;99.90;;;;;;5044741;28;20289;-75
2022/09/28 05:35:17;;;;;;;615.97;400.92;;;12.30;99.90;;;;;;5050477;28;20265;-76
2022/09/28 05:37:44;;;;;;;614.17;393.02;;;12.30;99.90;;;;;;5050750;28;20191;-76
2022/09/28 05:40:11;;;;;;;613.40;398.65;;;12.30;99.90;;;;;;5045675;28;20202;-76
2022/09/28 05:42:39;;;;;;;609.35;381.13;;;12.30;99.90;;;;;;5048415;28;20203;-76
2022/09/28 05:45:06;;;;;;;612.42;392.10;;;12.30;99.90;;;;;;5048714;28;20595;-76
2022/09/28 05:47:37;;;;;;;619.10;387.40;;;12.30;99.90;;;;;;5040116;28;20207;-76
2022/09/28 05:50:07;;;;;;;624.88;393.75;;;12.30;99.90;;;;;;5042255;28;20670;-77
2022/09/28 05:52:34;;;;;;;631.92;391.23;;;12.30;99.90;;;;;;5050003;28;20230;-78
2022/09/28 05:55:02;;;;;;;629.80;399.92;;;12.30;99.90;;;;;;5038640;28;20199;-76
2022/09/28 05:57:29;;;;;;;626.00;387.58;;;12.30;99.90;;;;;;5050662;28;20292;-74
2022/09/28 05:59:56;;;;;;;633.03;385.75;;;12.30;99.90;;;;;;5045689;28;20206;-80
2022/09/28 06:02:23;;;;;;;626.00;392.58;;;12.30;99.90;;;;;;5047954;28;20203;-76
2022/09/28 06:04:50;;;;;;;629.97;401.08;;;12.30;99.90;;;;;;5043303;28;20574;-75
2022/09/28 06:07:18;;;;;;;624.38;388.90;;;12.30;99.90;;;;;;5051415;28;20195;-76
2022/09/28 06:09:44;;;;;;;620.63;387.83;;;12.30;99.90;;;;;;5044239;28;20195;-76
2022/09/28 06:12:11;;;;;;;618.03;386.92;;;12.30;99.90;;;;;;5049818;28;20205;-74
2022/09/28 06:14:39;;;;;;;615.63;392.67;;;12.30;99.90;;;;;;5048872;28;20199;-78
2022/09/28 06:17:05;;;;;;;612.20;372.60;;;12.30;99.90;;;;;;5045690;28;20223;-74
2022/09/28 06:19:32;;;;;;;612.05;393.92;;;12.30;99.90;;;;;;5046936;28;20539;-74
2022/09/28 06:21:59;;;;;;;611.03;394.83;;;12.30;99.90;;;;;;5050065;28;20187;-76
2022/09/28 06:24:27;;;;;;;605.70;373.33;;;12.30;99.90;;;;;;5047545;28;20205;-77
2022/09/28 06:26:53;;;;;;;614.65;387.23;;;12.30;99.90;;;;;;5047904;28;20195;-77
2022/09/28 06:29:20;;;;;;;624.22;389.45;;;12.30;99.90;;;;;;5050636;28;20662;-77
2022/09/28 06:31:47;;;;;;;617.20;390.20;;;12.30;99.90;;;;;;5044738;28;20199;-78
2022/09/28 06:34:14;;;;;;;627.50;385.88;;;12.30;99.90;;;;;;5047146;28;20219;-75
2022/09/28 06:36:41;;;;;;;618.67;397.02;;;12.30;99.90;;;;;;5048950;28;20241;-76
2022/09/28 06:39:07;;;;;;;614.72;374.45;;;12.30;99.90;;;;;;5048830;28;20206;-76
2022/09/28 06:41:35;;;;;;;620.00;389.77;;;12.30;99.90;;;;;;5043885;28;20191;-76
2022/09/28 06:44:02;;;;;;;617.80;375.63;;;12.30;99.90;;;;;;5045133;28;20202;-75
2022/09/28 06:46:30;;;;;;;624.20;381.42;;;12.30;99.90;;;;;;5040283;28;20304;-77
2022/09/28 06:48:57;;;;;;;625.38;387.90;;;12.30;99.90;;;;;;5036051;28;20678;-75
2022/09/28 06:51:24;;;;;;;618.85;366.65;;;12.30;99.90;;;;;;5040491;28;20190;-77
2022/09/28 06:53:52;;;;;;;625.17;384.67;;;12.30;99.90;;;;;;5042750;28;20265;-76
2022/09/28 06:56:19;;;;;;;626.75;388.42;;;12.30;99.90;;;;;;5046444;28;20198;-76
2022/09/28 06:58:47;;;;;;;629.05;384.40;;;12.30;99.90;;;;;;5046855;28;20252;-76
2022/09/28 07:01:14;;;;;;;625.78;388.05;;;12.30;99.90;;;;;;5044162;28;20190;-76
2022/09/28 07:03:41;;;;;;;628.53;382.83;;;12.30;99.90;;;;;;5035767;28;20203;-76
2022/09/28 07:06:11;;;;;;;594.40;374.17;;;12.30;99.90;;;;;;5038842;28;20195;-76
2022/09/28 07:08:38;;;;;;;604.70;383.67;;;12.30;99.90;;;;;;5048390;28;20203;-77
2022/09/28 07:11:06;;;;;;;607.55;392.52;;;12.30;99.90;;;;;;5044881;28;20262;-76
2022/09/28 07:13:32;;;;;;;599.42;398.00;;;12.30;99.90;;;;;;5040949;28;20226;-74
2022/09/28 07:16:01;;;;;;;595.58;385.63;;;12.30;99.90;;;;;;5039116;28;20449;-76
2022/09/28 07:18:28;;;;;;;596.75;400.88;;;12.30;99.90;;;;;;5040252;28;20195;-76
2022/09/28 07:20:56;;;;;;;606.15;384.58;;;12.30;99.90;;;;;;5040135;28;20199;-75
2022/09/28 07:23:25;;;;;;;610.60;399.88;;;12.30;99.90;;;;;;5044361;28;20199;-77
2022/09/28 07:25:51;;;;;;;602.55;387.40;;;12.30;99.90;;;;;;5043258;28;20195;-73
2022/09/28 07:28:19;;;;;;;600.85;394.52;;;12.30;99.90;;;;;;5046483;28;20195;-73
2022/09/28 07:30:46;;;;;;;606.10;396.83;;;12.30;99.90;;;;;;5047455;28;20202;-74
2022/09/28 07:33:16;;;;;;;603.08;387.13;;;12.40;99.90;;;;;;5040386;28;20246;-73
2022/09/28 07:35:51;;;;;;;602.50;384.42;;;12.40;99.90;;;;;;5042954;28;20492;-74
2022/09/28 07:38:18;;;;;;;600.30;395.65;;;12.40;99.90;;;;;;5045673;28;20718;-74
2022/09/28 07:43:29;;;;;;;592.97;375.20;;;12.40;99.90;;;;;;5048057;28;20566;-74
2022/09/28 07:45:56;;;;;;;599.03;385.30;;;12.30;99.90;;;;;;5051023;28;20191;-73
2022/09/28 07:48:24;;;;;;;603.55;403.85;;;12.40;99.90;;;;;;5046485;28;20261;-74
2022/09/28 07:50:51;;;;;;;597.35;390.20;;;12.30;99.90;;;;;;5052076;28;20202;-74
2022/09/28 07:53:19;;;;;;;591.40;383.45;;;12.40;99.90;;;;;;5044559;28;20215;-74
2022/09/28 07:55:50;;;;;;;594.05;401.58;;;12.40;99.90;;;;;;5046594;28;20554;-74
2022/09/28 07:58:18;;;;;;;587.45;375.10;;;12.40;99.90;;;;;;5041494;28;20282;-74
2022/09/28 08:00:47;;;;;;;588.10;383.48;;;12.40;99.90;;;;;;5050830;28;20628;-74
2022/09/28 08:03:14;;;;;;;590.38;391.75;;;12.40;99.90;;;;;;5046871;28;20199;-75
2022/09/28 08:05:42;;;;;;;592.20;398.70;;;12.40;99.90;;;;;;5048482;28;20196;-74
2022/09/28 08:08:09;;;;;;;592.65;388.00;;;12.40;99.90;;;;;;5048324;28;20199;-76
2022/09/28 08:10:37;;;;;;;597.00;397.52;;;12.40;99.90;;;;;;5038790;28;20207;-75
2022/09/28 08:13:04;;;;;;;596.22;401.40;;;12.40;99.90;;;;;;5049721;28;20265;-76
2022/09/28 08:15:35;;;;;;;595.38;399.73;;;12.50;99.90;;;;;;5047128;28;20551;-77
2022/09/28 08:18:02;;;;;;;592.50;396.35;;;12.50;99.90;;;;;;5047098;28;20629;-76
2022/09/28 08:23:15;;;;;;;590.65;387.92;;;12.50;99.90;;;;;;5046671;28;20206;-77
2022/09/28 08:25:47;;;;;;;589.85;388.35;;;12.50;99.90;;;;;;5048371;28;20256;-76
2022/09/28 08:28:14;;;;;;;590.28;390.13;;;12.50;99.90;;;;;;5050362;28;20207;-76
2022/09/28 08:30:42;;;;;;;593.15;406.50;;;12.50;99.90;;;;;;5045609;28;20195;-77
2022/09/28 08:33:08;;;;;;;585.60;382.02;;;12.50;99.90;;;;;;5044548;28;20228;-76
2022/09/28 08:35:35;;;;;;;584.88;392.40;;;12.50;99.90;;;;;;5050035;28;20194;-76
2022/09/28 08:38:02;;;;;;;590.10;399.10;;;12.60;99.90;;;;;;5040706;28;20264;-76
2022/09/28 08:40:34;;;;;;;590.20;403.83;;;12.60;99.90;;;;;;5043974;28;20191;-76
2022/09/28 08:43:04;;;;;;;595.05;410.13;;;12.60;99.90;;;;;;5042174;28;20221;-77
2022/09/28 08:45:33;;;;;;;591.05;395.70;;;12.60;99.90;;;;;;5040439;28;20195;-76
2022/09/28 08:50:54;;;;;;;584.80;381.70;;;12.50;99.90;;;;;;5050815;28;20198;-76
2022/09/28 08:53:33;;;;;;;591.25;398.95;;;12.50;99.90;;;;;;5047889;28;20613;-76
2022/09/28 08:56:05;;;;;;;588.95;392.35;;;12.60;99.90;;;;;;5043900;28;20361;-74
2022/09/28 08:58:36;;;;;;;588.40;392.98;;;12.60;99.90;;;;;;5044304;28;20202;-76
2022/09/28 09:01:08;;;;;;;587.60;391.98;;;12.60;99.90;;;;;;5045541;28;20202;-75
2022/09/28 09:03:38;;;;;;;590.45;399.52;;;12.60;99.90;;;;;;5044842;28;20225;-74
2022/09/28 09:06:14;;;;;;;591.42;397.23;;;12.60;99.90;;;;;;5048790;28;20608;-76
2022/09/28 09:08:50;;;;;;;590.88;388.73;;;12.60;99.90;;;;;;5041825;28;20212;-76
2022/09/28 09:11:30;;;;;;;588.45;392.15;;;12.60;99.90;;;;;;5036346;28;20200;-77
2022/09/28 09:14:23;;;;;;;586.53;391.20;;;12.60;99.90;;;;;;5045544;28;20225;-75
2022/09/28 09:16:58;;;;;;;590.67;394.80;;;12.70;99.90;;;;;;5004784;28;20690;-76
2022/09/28 09:19:35;;;;;;;586.53;395.65;;;12.60;99.90;;;;;;5040668;28;20201;-75
2022/09/28 09:22:11;;;;;;;594.40;412.08;;;12.70;99.90;;;;;;5040833;28;20210;-75
2022/09/28 09:24:45;;;;;;;588.83;398.52;;;12.70;99.90;;;;;;5045835;28;20202;-75
2022/09/28 09:27:27;;;;;;;590.30;390.38;;;12.70;99.90;;;;;;5046488;28;20202;-75
2022/09/28 09:30:05;;;;;;;586.38;389.48;;;12.80;99.90;;;;;;5047413;28;20196;-75
2022/09/28 09:32:43;;;;;;;588.83;396.58;;;12.70;99.90;;;;;;5043566;28;20202;-76
2022/09/28 09:35:29;;;;;;;591.53;403.38;;;12.80;99.90;;;;;;5052538;28;20214;-75
2022/09/28 09:38:16;;;;;;;588.85;400.73;;;12.80;99.90;;;;;;5047684;28;20226;-75
2022/09/28 09:40:58;;;;;;;593.65;400.33;;;12.80;99.90;;;;;;5046438;28;20668;-75
2022/09/28 09:43:54;;;;;;;586.78;394.02;;;12.90;99.90;;;;;;5048913;28;20277;-75
2022/09/28 09:46:29;;;;;;;592.42;409.23;;;12.90;99.90;;;;;;5050517;28;20385;-75
2022/09/28 09:49:05;;;;;;;589.72;404.77;;;12.90;99.90;;;;;;5041834;28;20566;-75
2022/09/28 09:51:40;;;;;;;580.28;384.02;;;12.90;99.90;;;;;;5050855;28;20203;-76
2022/09/28 09:54:16;;;;;;;583.53;417.20;;;12.90;99.90;;;;;;5043292;28;20223;-75
2022/09/28 09:56:49;;;;;;;587.42;408.23;;;12.90;99.90;;;;;;5053006;28;20195;-76
2022/09/28 09:59:23;;;;;;;587.53;408.38;;;13.00;99.90;;;;;;5043968;28;20202;-75
2022/09/28 10:01:51;;;;;;;592.83;425.75;;;12.90;99.90;;;;;;5043903;28;20218;-75
2022/09/28 10:04:23;;;;;;;589.90;414.70;;;13.00;99.90;;;;;;5037230;28;20223;-75
2022/09/28 10:06:52;;;;;;;592.03;414.60;;;13.00;99.90;;;;;;5045845;28;20205;-75
2022/09/28 10:09:23;;;;;;;590.05;420.10;;;13.00;99.90;;;;;;5049530;28;20199;-75
2022/09/28 10:11:51;;;;;;;587.58;410.23;;;13.00;99.90;;;;;;5049727;28;20211;-76
2022/09/28 10:14:21;;;;;;;592.78;423.05;;;13.00;99.90;;;;;;5045687;28;20226;-75
2022/09/28 10:16:49;;;;;;;593.38;436.30;;;13.10;99.90;;;;;;5049246;28;20222;-75
2022/09/28 10:19:18;;;;;;;587.33;422.25;;;13.10;99.90;;;;;;5051976;28;20187;-75
2022/09/28 10:21:46;;;;;;;586.75;417.45;;;13.10;99.90;;;;;;5048668;28;20641;-76
2022/09/28 10:24:20;;;;;;;589.00;418.52;;;13.10;99.90;;;;;;5046154;28;20195;-75
2022/09/28 10:26:50;;;;;;;591.03;424.80;;;13.10;99.90;;;;;;5045384;28;20187;-86
2022/09/28 10:29:20;;;;;;;590.35;429.50;;;13.10;99.90;;;;;;5049671;28;20208;-75
2022/09/28 10:31:48;;;;;;;592.08;430.25;;;13.10;99.90;;;;;;5044603;28;20200;-74
2022/09/28 10:34:17;;;;;;;586.83;427.63;;;13.10;99.90;;;;;;5040874;28;20218;-75
2022/09/28 10:36:53;;;;;;;618.65;487.80;;;13.10;99.90;;;;;;5047170;28;20307;-78
2022/09/28 10:39:33;;;;;;;593.08;430.98;;;13.10;99.90;;;;;;5042095;28;20202;-79
2022/09/28 10:42:02;;;;;;;585.13;405.40;;;13.10;99.90;;;;;;5047972;28;20191;-79
2022/09/28 10:44:33;;;;;;;592.65;434.83;;;13.10;99.90;;;;;;5042091;28;20215;-79
2022/09/28 10:47:01;;;;;;;593.20;437.27;;;13.10;99.90;;;;;;5044664;28;20253;-76
2022/09/28 10:49:40;;;;;;;590.10;433.45;;;13.10;99.90;;;;;;5044172;28;20210;-74
2022/09/28 10:52:33;;;;;;;584.17;432.55;;;13.10;99.90;;;;;;5036651;28;20661;-79
2022/09/28 10:55:00;;;;;;;576.60;416.40;;;13.10;99.90;;;;;;5045153;28;20226;-77
2022/09/28 10:57:29;;;;;;;588.95;433.58;;;13.10;99.90;;;;;;5052506;28;20550;-75
2022/09/28 10:59:56;;;;;;;588.63;429.95;;;13.10;99.90;;;;;;5044373;28;20191;-76
2022/09/28 11:02:26;;;;;;;584.70;423.65;;;13.10;99.90;;;;;;5041554;28;20647;-75
2022/09/28 11:04:55;;;;;;;584.78;406.15;;;13.10;99.90;;;;;;5050037;28;20563;-76
2022/09/28 11:07:24;;;;;;;585.17;421.38;;;13.10;99.90;;;;;;5042839;28;20192;-77
2022/09/28 11:09:55;;;;;;;585.50;413.00;;;13.10;99.90;;;;;;5045525;28;21686;-79
2022/09/28 11:12:25;;;;;;;583.97;419.55;;;13.10;99.90;;;;;;5051038;28;20191;-77
2022/09/28 11:14:57;;;;;;;586.03;417.08;;;13.10;99.90;;;;;;5050516;28;20222;-76
2022/09/28 11:17:29;;;;;;;578.60;426.63;;;13.20;99.90;;;;;;5047457;28;20714;-76
2022/09/28 11:19:57;;;;;;;580.95;425.60;;;13.20;99.90;;;;;;5047826;28;20207;-74
2022/09/28 11:22:28;;;;;;;576.05;427.95;;;13.20;99.90;;;;;;5045366;28;20207;-75
2022/09/28 11:25:20;;;;;;;578.85;433.48;;;13.20;99.90;;;;;;5050233;28;20663;-75
2022/09/28 11:27:57;;;;;;;583.20;428.15;;;13.20;99.90;;;;;;5050795;28;20199;-83
2022/09/28 11:30:26;;;;;;;576.97;413.27;;;13.20;99.90;;;;;;5050467;28;20198;-74
2022/09/28 11:32:57;;;;;;;579.47;429.85;;;13.20;99.90;;;;;;5049516;28;20212;-80
2022/09/28 11:35:28;;;;;;;579.50;429.90;;;13.20;99.90;;;;;;5049409;28;20214;-76
2022/09/28 11:38:08;;;;;;;577.83;432.73;;;13.30;99.90;;;;;;5051864;28;20201;-78
2022/09/28 11:40:48;;;;;;;577.50;429.02;;;13.30;99.90;;;;;;5041380;28;20199;-79
2022/09/28 11:43:21;;;;;;;575.15;426.58;;;13.30;99.90;;;;;;5054244;28;20206;-77
2022/09/28 11:45:54;;;;;;;576.90;431.45;;;13.30;99.90;;;;;;5040365;28;20209;-81
2022/09/28 11:48:25;;;;;;;580.75;446.45;;;13.30;99.90;;;;;;5044806;28;20203;-75
2022/09/28 11:50:56;;;;;;;579.00;438.50;;;13.30;99.90;;;;;;5048512;28;20202;-78
2022/09/28 11:53:29;;;;;;;578.30;438.02;;;13.30;99.90;;;;;;5045589;28;20196;-76
2022/09/28 11:56:05;;;;;;;576.30;429.85;;;13.30;99.90;;;;;;5048169;28;20260;-74
2022/09/28 11:58:35;;;;;;;575.10;426.10;;;13.30;99.90;;;;;;5053072;28;20277;-76
2022/09/28 12:01:06;;;;;;;578.85;436.33;;;13.30;99.90;;;;;;5053143;28;20202;-76
2022/09/28 12:03:39;;;;;;;571.20;434.30;;;13.30;99.90;;;;;;5049823;28;20207;-78
2022/09/28 12:06:11;;;;;;;572.83;436.70;;;13.40;99.90;;;;;;5052175;28;20251;-77
2022/09/28 12:08:43;;;;;;;567.75;433.00;;;13.40;99.90;;;;;;5049121;28;20208;-77
2022/09/28 12:11:17;;;;;;;575.72;443.92;;;13.40;99.90;;;;;;5052911;28;20196;-79
2022/09/28 12:13:46;;;;;;;571.03;433.58;;;13.40;99.90;;;;;;5050462;28;20201;-78
2022/09/28 12:16:19;;;;;;;572.88;433.83;;;13.40;99.90;;;;;;5051890;28;20616;-77
2022/09/28 12:18:50;;;;;;;573.85;433.70;;;13.40;99.90;;;;;;5035821;28;20217;-78
2022/09/28 12:21:31;;;;;;;582.33;445.10;;;13.40;99.90;;;;;;5050506;28;20204;-84
2022/09/28 12:24:03;;;;;;;573.60;422.38;;;13.40;99.90;;;;;;5048024;28;20194;-81
2022/09/28 12:26:36;;;;;;;576.47;435.52;;;13.40;99.90;;;;;;5041643;28;20211;-79
2022/09/28 12:29:10;;;;;;;572.88;444.65;;;13.40;99.90;;;;;;5048198;28;20195;-77
2022/09/28 12:31:51;;;;;;;573.22;457.83;;;13.50;99.90;;;;;;5050132;28;20200;-78
2022/09/28 12:34:18;;;;;;;579.33;442.48;;;13.50;99.90;;;;;;5047192;28;20198;-80
2022/09/28 12:36:53;;;;;;;568.60;446.63;;;13.50;99.90;;;;;;5053339;28;20192;-77
2022/09/28 12:39:36;;;;;;;574.47;443.70;;;13.50;99.90;;;;;;5050439;28;20195;-78
2022/09/28 12:42:19;;;;;;;566.67;437.83;;;13.50;99.90;;;;;;5052685;28;20674;-76